Kagoshima, Japan

2:06 PM JST on September 03, 2014 (GMT +0900)
Kagoshima | Change Station
CLOSE
Current Station
Airport
Location: Kagoshima Airport,
Elevation: 902 ft
Nearby Weather Stations

Elev 902 ft 31.80 °N, 130.72 °E | Updated 1 hour ago

Light Rain Showers
Light Showers Rain
81 °F
Feels Like 85 °F
N
9
Wind Variable Wind from SSE

Today
High -- | Low -- °F
--% Chance of Precip.
Yesterday
High -- | Low -- °F
Precip. -- in
5:54 AM 6:39 PM
First Quarter, 58% visible
Pressure 29.83 in
Visibility 6.2 miles
Clouds Few 1000 ft
Scattered Clouds 2000 ft
Heat Index 85 °F
Dew Point 73 °F
Humidity 79%
Rainfall 0.00 in
Snow Depth Not available.
UV 10 out of 12
Pollen Not available.
Air Quality Not available.
Flu Activity Not available.
METAR RJFK 030400Z 16008KT 9999 -SHRA FEW010 SCT020 BKN/// 27/23 Q1010 RMK 1CU010 3CU020 A2984

More Conditions Fewer Conditions

Pressure 29.83 in
Visibility 6.2 miles
Clouds Few 1000 ft
Scattered Clouds 2000 ft
Heat Index 85 °F
Dew Point 73 °F
Humidity 79%
Rainfall 0.00 in
Snow Depth Not available.
UV 10 out of 12
Pollen Not available.
Air Quality Not available.
Flu Activity Not available.
METAR RJFK 030400Z 16008KT 9999 -SHRA FEW010 SCT020 BKN/// 27/23 Q1010 RMK 1CU010 3CU020 A2984

More Conditions Fewer Conditions

10-Day Weather Forecast

Almanac

Astronomy

Sep. 03, 2014 Rise Set
Actual Time 5:54 AM JST 6:39 PM JST
Civil Twilight 5:29 AM JST 7:04 PM JST
Nautical Twilight 5:00 AM JST 7:33 PM JST
Astronomical Twilight 4:30 AM JST 8:03 PM JST
Moon 1:34 PM JST No Moon Set
Length of Visible Light 13h 34m
Length of Day
12h 45m
Tomorrow will be 1m 51s shorter.
First Quarter, 58% of the Moon is Illuminated
Today
First Quarter
Sep 8
Full
Sep 15
Last Quarter
Sep 24
New
Oct 1
First Quarter

Yesterday's Extremes

Country Highs Country Lows

Community

WunderPhotos

Upload Photos

1,749,873 photos uploaded!

Nearby

Snow Depth

Not available.

Earthquake Activity

City Distance Mag. Time & Date
No recent earthquake activity has been reported nearby.
Minimum magnitude displayed is 2.5.

Coastal Water Temperatures

Place Temperature
No Stations Reporting

Nearby Weather Stations